El tiempo en ÁFRICA

meteoro

ZONDA EN SUDÁFRICA

Mensaje por meteoro »

Zonda en Sudáfrica??
No contaban con esta sorpresa no?
Hay más, busquen en el mapa (al Este de Lesotho digamos)
www.ogimet.com, navegador synop
Todo parece cerrar con la sitaucion de hoy. Varios lugares de Sudáfrica dieron máximas mayores a 30 grados hoy, algunos de ellos llegaron a 37.

Del otro lado:
CAPE TOWN, MÁXIMA 16, MINIMA 7, PRESION 1030!! IGUAL QUE NOSOTROS, JEJE
No tiene los permisos requeridos para ver los archivos adjuntos a este mensaje.
meteoro

ARRIBOS 14/6

Mensaje por meteoro »

Su atención por favor

Se anuncia la llegada de ANTICICLON 1035, procedente de ARGENTINA, al CONTINENTE AFRICANO para comienzos de la semana próxima. Esto sucederá en el medio del MUNDIAL DE FUTBOL, por lo tanto se sugiere tomar las precauciones del caso.

Se esperan:
1) LLUVIAS EN EL SUR DEL PAÍS, con NEVADAS EN ZONAS DE MONTAÑA
2) LLUVIAS previas o durante el partido ITALIA-PARAGUAY, a jugarse en CAPE TOWN el LUNES 14/6 20.30 (local), BAJAS TEMPERATURAS perjudicando probablemente a PARAGUAY, salvo a los jugadores que juegan en el fútbol europeo, acostumbrados al frío de aquel continente.
3) VIENTOS FUERTES, afectando a la JABULANI, cuya trayectoria será IMPREDECIBLE.

Aquí el Aviso oficial del SAWS, para la provincia WESTERN CAPE:

ADVISORIES: 1. Heavy falls of rain are expected in places over the western parts of the Western Cape Province on Sunday night and on Monday. 2. Very cold, wet and windy conditions are expected to set in over the interior of the Western Cape from Sunday overnight through to Wednesday. 3. Snowfalls are expected on the high ground of the Western Cape, from Monday through to Tuesday 4. Very rough seas with wave heights in excess of 5m are expected south of Lamberts Bay on Monday spreading to Port Alfred moderating on Wednesday. 5. Gale force westerly to north-westerly winds(35kt/65km/h) are expected in places between Cape Point and Cape Agulhas on Sunday, spreading eastwards to Port Alfred by Monday. 6. Very strong westerly to south-westerly winds(50km/h) are expected over the interior of the Western Cape Provinceon Sunday and Monday.
No tiene los permisos requeridos para ver los archivos adjuntos a este mensaje.
meteoro

Re: El tiempo en ÁFRICA

Mensaje por meteoro »

Cambios para los próximos 7 días.
Tiempo más frío que lo normal está previsto para Sudáfrica.
Preparen los guantes los muchachos que juegan de noche (tendrán 6 o 7º supongo)
MARTES 20.30 HS: BRASIL - COREA DEL NORTE en JOHANNESBURBO (Ventoso y frío)
MIERCOLES 20.30 HS: SUDÁFRICA - URUGUAY en PRETORIA.
No tiene los permisos requeridos para ver los archivos adjuntos a este mensaje.
meteoro

Empieza el INVIERNO en ÁFRICA

Mensaje por meteoro »

BUENO MUCHACHOS DE TYC, BLATTER, NELSON, BONADEO, CARLITOS Y CIA
A sacar los guantes y la bufanda

Empieza el frío en serio en SUDAFRICA (vamos a ver cuanto dura) antes que en ARGENTINA. Una verdadera INJUSTICIA. Al menos los muchachos de BRASIL se avivaron (leyeron mi pronóstico) y van a hacer un entrenamiento DE NOCHE, antes de jugar con COREA NTE el MARTES A LA NOCHE.
No tiene los permisos requeridos para ver los archivos adjuntos a este mensaje.
MetSul
Mensajes: 1256
Registrado: Mié Mar 10, 2010 10:32 pm

Re: El tiempo en ÁFRICA

Mensaje por MetSul »

JOHANNESBURGO

Código: Seleccionar todo

GFS Grid 3 (1 deg) FORECAST FOR: FAJS   LAT= -26.13 LON=   28.23 ELE=  5578

                                            18Z JUN13   * - APPROXIMATED
                 2 M     850     SFC     SFC     700    6 HR     500    1000 
                 TMP     TMP     PRS     RHU     RHU     QPF     HGT     500 
                 (C)     (C)    (MB)    (PCT)   (PCT)   (IN)    (DM)     THK 
SUN 18Z 13-JUN  12.9    14.9    1018      57      61             581     565    
MON 00Z 14-JUN   8.3    11.2    1018      44      21    0.00     579     564    
MON 06Z 14-JUN   7.8     9.7    1019      37      10    0.00     579     563    
MON 12Z 14-JUN  18.0    17.2    1014      19      31    0.00     577     565    
MON 18Z 14-JUN  10.8    13.1    1014      38      43    0.00     575     563    
TUE 00Z 15-JUN   8.6    10.2    1015      54      37    0.00     572     560    
TUE 06Z 15-JUN   5.3     5.0    1020      63      41    0.00     570     554    
TUE 12Z 15-JUN  10.3     8.6    1018      36      21    0.00     570     554    
TUE 18Z 15-JUN   4.3     4.5    1025      52      17    0.00     571     550    
WED 00Z 16-JUN   1.4     1.8    1029      61       1    0.00     573     549    
WED 06Z 16-JUN   0.8     0.4    1031      62       4    0.00     576     550    
WED 12Z 16-JUN  10.0     8.0    1026      18       5    0.00     576     554    
WED 18Z 16-JUN   3.0     4.4    1030      29       8    0.00     576     551    
THU 00Z 17-JUN  -0.3     1.2    1033      46      10    0.00     575     548    
THU 06Z 17-JUN   1.3     1.3    1036      49      15    0.00     576     547    
THU 12Z 17-JUN  11.3     8.8    1030      25      19    0.00     577     552    
THU 18Z 17-JUN   4.1     6.7    1034      46      25    0.00     580     552    
FRI 00Z 18-JUN   1.3     3.3    1036      73       2    0.00     581     551    
FRI 06Z 18-JUN   1.9     2.0    1037      72       3    0.00     583     553    
FRI 12Z 18-JUN  11.7     9.2    1030      25       3    0.00     583     558    
FRI 18Z 18-JUN   3.9     7.6    1031      44       0    0.00     585     559    
SAT 00Z 19-JUN   0.9     5.7    1032      56       0    0.00     585     559    
SAT 06Z 19-JUN   3.3     4.2    1034      65       1    0.00     586     558    
SAT 12Z 19-JUN  12.6    10.4    1027      36       2    0.00     585     562    
SAT 18Z 19-JUN   4.5     9.0    1028      64       0    0.00     586     562    
SUN 00Z 20-JUN   1.2     7.2    1028      80       1    0.00     585     561    
SUN 06Z 20-JUN   3.8     5.5    1030      65       2    0.00     585     560    
SUN 12Z 20-JUN  14.2    12.4    1025      29       3    0.00     584     563    
SUN 18Z 20-JUN   5.8    11.6    1026      52       2    0.00     585     563    
MON 00Z 21-JUN   2.8     9.5    1026      75       3    0.00     584     563    
MON 06Z 21-JUN   4.8     8.1    1027      61       5    0.00     584     562    
MetSul Meteorologia
São Leopoldo - Rio Grande do Sul - Brasil
http://www.metsul.com
climatologia@terra.com.br
Twitter: @metsul - Facebook: facebook.com/metsulmeteorologia
meteoro

Re: El tiempo en ÁFRICA

Mensaje por meteoro »

Esta noche y mañana a la noche en AFRICA

1) Notable intrusión de aire FRIO en SUDAFRICA, gracias al ANTICICLÓN que les enviamos nosotros
2) Baja térmica en ARABIA y GOLFO PERSICO, con espesores de 5940
3) Cuña en LIBIA, que llega hasta GRECIA. Es la misma que estaba en ARGELIA e ITALIA hace un par de días. Las temperaturas más altas de Europa, ayer: TURQUIA 41º, RUSIA 40º, GRECIA Y GEORGIA 37º, entre otras.
4) BAJA estacionada hace tiempo en ESPAÑA
5) ALTA POSTFRONTAL (o algo parecido) en el NORTE DE ARGELIA (para mañana)
Miren estos METAR, todos cerca
METAR DAOB 141500Z 30018KT 0200 FG SCT006 BKN020 14/13 Q1012=
Esta localidad, Tiaret, está a 1000 metros.
SPECI DAUB 140905Z 11022KT 5000 TS FEW033CB SCT040 31/18 Q1009=
SPECI DAUG 141538Z 24026G36KT 0500 SHGR SCT033CB SCT040 24/12 Q1007=
SPECI DAUU 141525Z 18024KT 1500 BLSA FEW046 BKN233 40/17 Q1005=

Muchas tormentas hay ahora entre el NTE DE ARGELIA, MALTA Y CERDEÑA


Africa 1.gif
No tiene los permisos requeridos para ver los archivos adjuntos a este mensaje.
meteoro

Re: El tiempo en ÁFRICA

Mensaje por meteoro »

La tarde está fresca en SUDAFRICA, con el ingreso de aire frío que empieza a notarse desde el sur

BL: Bloemfontein, bien seco está el lugar ese (hoy jugaron JPN-CAM); la mínima fue -2ºC
CT: CAPE TOWN (donde juegan Italia-Paraguay en un ratito)
GG: GEORGE debe estar en la costa, cerca de Pto elizabeth
JS: Johannesburgo
LA: Lanseria, un aeropuerto de Johannesburgo
PE: Puerto Elizabeth (C MARFIL Y PORTUGAL juegan mañana)
MM: Mmabatho Airport, está al Norte-Noroeste (cálido y bien seco hoy)
EL: East London, también en la costa

###################################
# Ultimos METAR/SPECI de South Africa antes de 14/06/2010 16:08:06 UTC
###################################
201006141500 METAR FABL 141500Z 22006KT CAVOK 14/M06 Q1013 NOSIG=
201006141500 METAR FACT 141500Z 21010KT 9999 BKN035 10/05 Q1017 NOSIG=
201006141500 METAR FAEL 141500Z 29003KT 240V320 9999 FEW030 14/07 Q1006=

Mirá este:
201006141500 METAR FAGG 141500Z 30015KT 9999 -RA FEW007 BKN043 07/05 Q1012=
Hace pocas horas, muy notable el pasaje del frente:
METAR FAGG 141000Z 29011KT 250V320 9999 BKN050 15/05 Q1006=
METAR FAGG 141100Z 24023G34KT 6000 -RA SCT007 BKN027 09/08 Q1007=

201006141600 METAR FAJS 141600Z 34007KT CAVOK 15/M01 Q1018 NOSIG=
201006141500 METAR FALA 141500Z 32008KT CAVOK 18/M01 Q1016 NOSIG=
201006141500 METAR FAMM 141500Z 29013KT CAVOK 23/M05 Q1014 NOSIG=
201006141500 METAR FAPE 141500Z 25024G36KT 9999 FEW015 BKN025 11/09 Q1007 RESHRA NOSIG=
201006141500 METAR FAUP 141500Z 26013KT 9999 FEW015 16/02 Q1014 NOSIG=
meteoro

Re: El tiempo en ÁFRICA

Mensaje por meteoro »

He aquí la lluvia, no sé si puede verse. Unos 25-30 mm en la zona de CAPE TOWN, hasta las 12 UTC

TIEMPO ACTUAL EN SUDAFRICA:
CAPE TOWN: Temperatura 9º7, Viento SW 10 kts, No llueve, cielo parcialmente cubierto
JOHANNESBURGO: 16º, td: -2, NW 12kts, 4/8 cs/ci
NELSPRUIT: 25º, Td: 1º (allá también tienen un FC o algo, pero con aire seco)
POLOKWANE: 22º, Td 2º, 1/8 de cirrus
PRETORIA: 19º, NW 10 nudos, 1/8 de cirrus también
DURBAN: 22/17, acá hay humedad parece.
No tiene los permisos requeridos para ver los archivos adjuntos a este mensaje.
Avatar de Usuario
matute_bow
Mensajes: 14479
Registrado: Dom Jul 12, 2009 8:51 pm
Ubicación: Buenos Aires, Argentina

Re: El tiempo en ÁFRICA

Mensaje por matute_bow »

Lindo frente frío y aire polar se le mete a Sudáfrica en estos días, se van a cag*r de frío de noche, ajajajaajajajaja
"-cuando estábamos jugando yo y Kiko-.-el burro por delante-.-aaa, pase usted!- JAJAJAJAJAJA, amo el chavo!, ajajajaja
MetSul
Mensajes: 1256
Registrado: Mié Mar 10, 2010 10:32 pm

Re: El tiempo en ÁFRICA

Mensaje por MetSul »

Nieve en una de las ciudades sedes del Mundial 2010:

Aeropuerto de Bloemfontein

FABL 150900Z 16016KT 9999 FEW020 SCT080 04/M04 Q1024 NOSIG
FABL 150800Z 22020KT 9999 -SN BKN015 03/M03 Q1023 TEMPO 4000 SN
FABL 150700Z 22016KT 9999 SCT020 01/M04 Q1022 NOSIG
FABL 150600Z 20008KT 9999 SCT020 M00/M04 Q1022 NOSIG
FABL 150500Z 24011KT 9999 SCT020 00/M02 Q1020 NOSIG

Recien escribi un informe sobre el frio de Sudafrica en nuestro sitio www.metsul.com
MetSul Meteorologia
São Leopoldo - Rio Grande do Sul - Brasil
http://www.metsul.com
climatologia@terra.com.br
Twitter: @metsul - Facebook: facebook.com/metsulmeteorologia